Terminal Aerodrome Forecast
Issued by NWS Sterling, VA

Current Version | Previous Version | Graphics & Text | Print | Product List | Glossary On
Versions: 1 2 3 4 5 6 7 8 9 10 11 12 13 14 15 16 17 18 19 20 21 22 23
000
FTUS41 KLWX 012332
TAFIAD
TAF
KIAD 012332Z 0200/0306 20004KT 6SM -FZRA BR OVC006
     FM020100 22004KT 6SM -FZDZ SCT007 OVC020
     FM020600 26004KT P6SM OVC020
     FM021000 29004KT P6SM OVC050
     FM021300 31009KT P6SM BKN150
     FM021800 31012G20KT P6SM SCT250
     FM030100 31008KT P6SM FEW200=

USA.gov is the U.S. government's official web portal to all federal, state and local government web resources and services.